sensor_id;sensor_type;location;lat;lon;timestamp;P1;durP1;ratioP1;P2;durP2;ratioP2
16965;SDS011;8599;47.852;12.070;2023-11-21T00:00:24;5.77;;;1.57;;
16965;SDS011;8599;47.852;12.070;2023-11-21T00:02:51;2.63;;;1.40;;
16965;SDS011;8599;47.852;12.070;2023-11-21T00:05:18;2.37;;;1.03;;
16965;SDS011;8599;47.852;12.070;2023-11-21T00:07:46;9.73;;;1.80;;
16965;SDS011;8599;47.852;12.070;2023-11-21T00:10:13;8.27;;;1.43;;
16965;SDS011;8599;47.852;12.070;2023-11-21T00:12:41;7.87;;;1.33;;
16965;SDS011;8599;47.852;12.070;2023-11-21T00:15:08;4.70;;;1.33;;
16965;SDS011;8599;47.852;12.070;2023-11-21T00:17:36;8.07;;;1.23;;
16965;SDS011;8599;47.852;12.070;2023-11-21T00:20:04;7.80;;;1.53;;
16965;SDS011;8599;47.852;12.070;2023-11-21T00:22:32;6.40;;;1.67;;
16965;SDS011;8599;47.852;12.070;2023-11-21T00:25:01;7.00;;;1.60;;
16965;SDS011;8599;47.852;12.070;2023-11-21T00:27:29;7.20;;;1.50;;
16965;SDS011;8599;47.852;12.070;2023-11-21T00:29:55;6.33;;;1.57;;
16965;SDS011;8599;47.852;12.070;2023-11-21T00:32:22;6.57;;;1.43;;
16965;SDS011;8599;47.852;12.070;2023-11-21T00:34:49;5.03;;;1.20;;
16965;SDS011;8599;47.852;12.070;2023-11-21T00:37:16;7.60;;;1.57;;
16965;SDS011;8599;47.852;12.070;2023-11-21T00:39:43;3.90;;;1.20;;
16965;SDS011;8599;47.852;12.070;2023-11-21T00:42:11;6.20;;;1.80;;
16965;SDS011;8599;47.852;12.070;2023-11-21T00:44:38;5.30;;;1.33;;
16965;SDS011;8599;47.852;12.070;2023-11-21T00:47:05;5.57;;;1.37;;
16965;SDS011;8599;47.852;12.070;2023-11-21T00:49:33;4.47;;;1.67;;
16965;SDS011;8599;47.852;12.070;2023-11-21T00:51:59;4.27;;;1.20;;
16965;SDS011;8599;47.852;12.070;2023-11-21T00:54:26;4.60;;;1.53;;
16965;SDS011;8599;47.852;12.070;2023-11-21T00:56:53;4.13;;;1.20;;
16965;SDS011;8599;47.852;12.070;2023-11-21T00:59:21;11.20;;;1.57;;
16965;SDS011;8599;47.852;12.070;2023-11-21T01:01:49;7.53;;;1.47;;
16965;SDS011;8599;47.852;12.070;2023-11-21T01:04:16;6.70;;;1.47;;
16965;SDS011;8599;47.852;12.070;2023-11-21T01:06:43;5.80;;;1.30;;
16965;SDS011;8599;47.852;12.070;2023-11-21T01:09:10;4.63;;;1.40;;
16965;SDS011;8599;47.852;12.070;2023-11-21T01:11:37;9.60;;;1.60;;
16965;SDS011;8599;47.852;12.070;2023-11-21T01:14:04;9.80;;;1.90;;
16965;SDS011;8599;47.852;12.070;2023-11-21T01:16:35;5.07;;;1.70;;
16965;SDS011;8599;47.852;12.070;2023-11-21T01:19:02;11.57;;;2.03;;
16965;SDS011;8599;47.852;12.070;2023-11-21T01:21:29;11.20;;;1.67;;
16965;SDS011;8599;47.852;12.070;2023-11-21T01:23:56;12.77;;;2.00;;
16965;SDS011;8599;47.852;12.070;2023-11-21T01:26:23;3.30;;;1.50;;
16965;SDS011;8599;47.852;12.070;2023-11-21T01:28:50;8.67;;;1.60;;
16965;SDS011;8599;47.852;12.070;2023-11-21T01:31:17;10.23;;;1.53;;
16965;SDS011;8599;47.852;12.070;2023-11-21T01:33:46;6.13;;;2.10;;
16965;SDS011;8599;47.852;12.070;2023-11-21T01:36:13;7.03;;;1.80;;
16965;SDS011;8599;47.852;12.070;2023-11-21T01:38:40;8.27;;;1.63;;
16965;SDS011;8599;47.852;12.070;2023-11-21T01:41:09;3.83;;;1.33;;
16965;SDS011;8599;47.852;12.070;2023-11-21T01:43:38;8.37;;;1.73;;
16965;SDS011;8599;47.852;12.070;2023-11-21T01:46:05;12.03;;;1.40;;
16965;SDS011;8599;47.852;12.070;2023-11-21T01:48:32;5.50;;;1.53;;
16965;SDS011;8599;47.852;12.070;2023-11-21T01:51:01;5.03;;;1.53;;
16965;SDS011;8599;47.852;12.070;2023-11-21T01:53:28;11.77;;;2.10;;
16965;SDS011;8599;47.852;12.070;2023-11-21T01:55:55;9.10;;;2.70;;
16965;SDS011;8599;47.852;12.070;2023-11-21T01:58:23;8.33;;;2.77;;
16965;SDS011;8599;47.852;12.070;2023-11-21T02:00:50;8.53;;;2.83;;
16965;SDS011;8599;47.852;12.070;2023-11-21T02:03:19;7.23;;;3.23;;
16965;SDS011;8599;47.852;12.070;2023-11-21T02:05:46;6.57;;;2.40;;
16965;SDS011;8599;47.852;12.070;2023-11-21T02:08:15;4.97;;;2.63;;
16965;SDS011;8599;47.852;12.070;2023-11-21T02:10:41;10.97;;;3.43;;
16965;SDS011;8599;47.852;12.070;2023-11-21T02:13:08;12.20;;;3.57;;
16965;SDS011;8599;47.852;12.070;2023-11-21T02:15:36;10.50;;;3.00;;
16965;SDS011;8599;47.852;12.070;2023-11-21T02:18:04;10.83;;;3.00;;
16965;SDS011;8599;47.852;12.070;2023-11-21T02:20:31;6.83;;;3.27;;
16965;SDS011;8599;47.852;12.070;2023-11-21T02:23:01;10.50;;;3.43;;
16965;SDS011;8599;47.852;12.070;2023-11-21T02:25:28;15.07;;;3.23;;
16965;SDS011;8599;47.852;12.070;2023-11-21T02:27:57;8.07;;;2.90;;
16965;SDS011;8599;47.852;12.070;2023-11-21T02:30:25;5.23;;;3.30;;
16965;SDS011;8599;47.852;12.070;2023-11-21T02:32:53;6.43;;;3.20;;
16965;SDS011;8599;47.852;12.070;2023-11-21T02:35:19;7.00;;;3.40;;
16965;SDS011;8599;47.852;12.070;2023-11-21T02:37:47;9.13;;;3.50;;
16965;SDS011;8599;47.852;12.070;2023-11-21T02:40:15;7.30;;;3.30;;
16965;SDS011;8599;47.852;12.070;2023-11-21T02:42:43;5.53;;;3.70;;
16965;SDS011;8599;47.852;12.070;2023-11-21T02:45:10;6.97;;;3.50;;
16965;SDS011;8599;47.852;12.070;2023-11-21T02:47:38;5.47;;;3.53;;
16965;SDS011;8599;47.852;12.070;2023-11-21T02:50:05;6.83;;;3.50;;
16965;SDS011;8599;47.852;12.070;2023-11-21T02:52:33;8.77;;;3.73;;
16965;SDS011;8599;47.852;12.070;2023-11-21T02:55:00;16.73;;;4.00;;
16965;SDS011;8599;47.852;12.070;2023-11-21T02:57:28;12.00;;;4.20;;
16965;SDS011;8599;47.852;12.070;2023-11-21T02:59:55;10.50;;;4.20;;
16965;SDS011;8599;47.852;12.070;2023-11-21T03:02:22;15.20;;;3.67;;
16965;SDS011;8599;47.852;12.070;2023-11-21T03:04:49;9.57;;;4.57;;
16965;SDS011;8599;47.852;12.070;2023-11-21T03:07:18;10.23;;;4.00;;
16965;SDS011;8599;47.852;12.070;2023-11-21T03:09:46;5.67;;;4.10;;
16965;SDS011;8599;47.852;12.070;2023-11-21T03:12:13;4.97;;;3.80;;
16965;SDS011;8599;47.852;12.070;2023-11-21T03:14:42;9.50;;;3.83;;
16965;SDS011;8599;47.852;12.070;2023-11-21T03:17:09;5.87;;;3.63;;
16965;SDS011;8599;47.852;12.070;2023-11-21T03:19:36;8.63;;;4.40;;
16965;SDS011;8599;47.852;12.070;2023-11-21T03:22:03;6.17;;;3.97;;
16965;SDS011;8599;47.852;12.070;2023-11-21T03:24:30;6.67;;;4.60;;
16965;SDS011;8599;47.852;12.070;2023-11-21T03:26:57;6.53;;;3.67;;
16965;SDS011;8599;47.852;12.070;2023-11-21T03:29:25;10.10;;;4.57;;
16965;SDS011;8599;47.852;12.070;2023-11-21T03:31:53;7.33;;;4.00;;
16965;SDS011;8599;47.852;12.070;2023-11-21T03:34:22;8.70;;;4.13;;
16965;SDS011;8599;47.852;12.070;2023-11-21T03:36:50;12.00;;;4.27;;
16965;SDS011;8599;47.852;12.070;2023-11-21T03:39:17;6.63;;;4.40;;
16965;SDS011;8599;47.852;12.070;2023-11-21T03:41:46;10.13;;;4.33;;
16965;SDS011;8599;47.852;12.070;2023-11-21T03:44:12;8.53;;;4.70;;
16965;SDS011;8599;47.852;12.070;2023-11-21T03:46:40;10.50;;;4.33;;
16965;SDS011;8599;47.852;12.070;2023-11-21T03:49:08;7.73;;;4.57;;
16965;SDS011;8599;47.852;12.070;2023-11-21T03:51:35;11.30;;;5.00;;
16965;SDS011;8599;47.852;12.070;2023-11-21T03:54:02;11.10;;;4.43;;
16965;SDS011;8599;47.852;12.070;2023-11-21T03:56:30;7.37;;;4.73;;
16965;SDS011;8599;47.852;12.070;2023-11-21T03:58:56;8.83;;;4.70;;
16965;SDS011;8599;47.852;12.070;2023-11-21T04:01:23;10.87;;;4.83;;
16965;SDS011;8599;47.852;12.070;2023-11-21T04:03:51;11.40;;;4.17;;
16965;SDS011;8599;47.852;12.070;2023-11-21T04:06:19;9.97;;;4.30;;
16965;SDS011;8599;47.852;12.070;2023-11-21T04:08:46;10.33;;;4.30;;
16965;SDS011;8599;47.852;12.070;2023-11-21T04:11:13;13.97;;;4.70;;
16965;SDS011;8599;47.852;12.070;2023-11-21T04:13:41;16.20;;;4.67;;
16965;SDS011;8599;47.852;12.070;2023-11-21T04:16:08;6.70;;;4.13;;
16965;SDS011;8599;47.852;12.070;2023-11-21T04:18:35;18.43;;;5.47;;
16965;SDS011;8599;47.852;12.070;2023-11-21T04:21:03;9.17;;;3.90;;
16965;SDS011;8599;47.852;12.070;2023-11-21T04:23:32;11.77;;;4.73;;
16965;SDS011;8599;47.852;12.070;2023-11-21T04:25:59;9.50;;;4.60;;
16965;SDS011;8599;47.852;12.070;2023-11-21T04:28:27;12.10;;;5.33;;
16965;SDS011;8599;47.852;12.070;2023-11-21T04:30:54;5.43;;;3.53;;
16965;SDS011;8599;47.852;12.070;2023-11-21T04:33:21;10.37;;;4.03;;
16965;SDS011;8599;47.852;12.070;2023-11-21T04:35:48;7.63;;;3.87;;
16965;SDS011;8599;47.852;12.070;2023-11-21T04:38:15;8.03;;;3.83;;
16965;SDS011;8599;47.852;12.070;2023-11-21T04:40:43;11.73;;;4.43;;
16965;SDS011;8599;47.852;12.070;2023-11-21T04:43:10;12.50;;;4.27;;
16965;SDS011;8599;47.852;12.070;2023-11-21T04:45:37;19.57;;;4.53;;
16965;SDS011;8599;47.852;12.070;2023-11-21T04:48:06;12.60;;;4.70;;
16965;SDS011;8599;47.852;12.070;2023-11-21T04:50:33;9.73;;;4.20;;
16965;SDS011;8599;47.852;12.070;2023-11-21T04:53:00;8.20;;;3.93;;
16965;SDS011;8599;47.852;12.070;2023-11-21T04:55:26;10.33;;;3.33;;
16965;SDS011;8599;47.852;12.070;2023-11-21T04:57:55;7.07;;;3.50;;
16965;SDS011;8599;47.852;12.070;2023-11-21T05:00:22;7.03;;;3.80;;
16965;SDS011;8599;47.852;12.070;2023-11-21T05:02:49;9.37;;;3.47;;
16965;SDS011;8599;47.852;12.070;2023-11-21T05:05:17;5.93;;;3.37;;
16965;SDS011;8599;47.852;12.070;2023-11-21T05:07:44;7.87;;;3.77;;
16965;SDS011;8599;47.852;12.070;2023-11-21T05:10:11;17.10;;;5.37;;
16965;SDS011;8599;47.852;12.070;2023-11-21T05:12:39;11.67;;;5.53;;
16965;SDS011;8599;47.852;12.070;2023-11-21T05:15:09;14.33;;;6.10;;
16965;SDS011;8599;47.852;12.070;2023-11-21T05:17:40;11.97;;;5.43;;
16965;SDS011;8599;47.852;12.070;2023-11-21T05:20:08;8.23;;;5.57;;
16965;SDS011;8599;47.852;12.070;2023-11-21T05:22:36;8.80;;;5.33;;
16965;SDS011;8599;47.852;12.070;2023-11-21T05:25:03;8.20;;;5.23;;
16965;SDS011;8599;47.852;12.070;2023-11-21T05:27:32;13.60;;;5.57;;
16965;SDS011;8599;47.852;12.070;2023-11-21T05:30:00;7.47;;;4.73;;
16965;SDS011;8599;47.852;12.070;2023-11-21T05:32:29;8.07;;;4.60;;
16965;SDS011;8599;47.852;12.070;2023-11-21T05:34:56;11.40;;;5.07;;
16965;SDS011;8599;47.852;12.070;2023-11-21T05:37:23;6.40;;;5.00;;
16965;SDS011;8599;47.852;12.070;2023-11-21T05:39:52;7.70;;;5.13;;
16965;SDS011;8599;47.852;12.070;2023-11-21T05:42:19;10.73;;;5.67;;
16965;SDS011;8599;47.852;12.070;2023-11-21T05:44:46;10.40;;;5.90;;
16965;SDS011;8599;47.852;12.070;2023-11-21T05:47:13;9.77;;;5.10;;
16965;SDS011;8599;47.852;12.070;2023-11-21T05:49:41;15.80;;;5.70;;
16965;SDS011;8599;47.852;12.070;2023-11-21T05:52:08;8.53;;;5.87;;
16965;SDS011;8599;47.852;12.070;2023-11-21T05:54:35;9.77;;;5.13;;
16965;SDS011;8599;47.852;12.070;2023-11-21T05:57:02;10.53;;;5.77;;
16965;SDS011;8599;47.852;12.070;2023-11-21T05:59:29;13.17;;;6.53;;
16965;SDS011;8599;47.852;12.070;2023-11-21T06:01:55;10.07;;;6.10;;
16965;SDS011;8599;47.852;12.070;2023-11-21T06:04:23;15.03;;;6.07;;
16965;SDS011;8599;47.852;12.070;2023-11-21T06:06:52;10.70;;;5.40;;
16965;SDS011;8599;47.852;12.070;2023-11-21T06:09:19;8.13;;;5.67;;
16965;SDS011;8599;47.852;12.070;2023-11-21T06:11:46;12.93;;;6.20;;
16965;SDS011;8599;47.852;12.070;2023-11-21T06:14:13;10.80;;;5.83;;
16965;SDS011;8599;47.852;12.070;2023-11-21T06:16:43;8.67;;;5.77;;
16965;SDS011;8599;47.852;12.070;2023-11-21T06:19:10;11.53;;;6.60;;
16965;SDS011;8599;47.852;12.070;2023-11-21T06:21:37;16.37;;;7.30;;
16965;SDS011;8599;47.852;12.070;2023-11-21T06:24:05;10.70;;;6.43;;
16965;SDS011;8599;47.852;12.070;2023-11-21T06:26:33;21.07;;;11.60;;
16965;SDS011;8599;47.852;12.070;2023-11-21T06:28:59;60.10;;;25.63;;
16965;SDS011;8599;47.852;12.070;2023-11-21T06:31:28;18.70;;;10.27;;
16965;SDS011;8599;47.852;12.070;2023-11-21T06:33:55;15.40;;;7.53;;
16965;SDS011;8599;47.852;12.070;2023-11-21T06:36:22;12.70;;;6.80;;
16965;SDS011;8599;47.852;12.070;2023-11-21T06:38:49;11.70;;;7.35;;
16965;SDS011;8599;47.852;12.070;2023-11-21T06:41:18;17.30;;;6.57;;
16965;SDS011;8599;47.852;12.070;2023-11-21T06:43:45;13.40;;;5.87;;
16965;SDS011;8599;47.852;12.070;2023-11-21T06:46:12;8.77;;;5.33;;
16965;SDS011;8599;47.852;12.070;2023-11-21T06:48:40;14.03;;;6.70;;
16965;SDS011;8599;47.852;12.070;2023-11-21T06:51:08;14.23;;;6.20;;
16965;SDS011;8599;47.852;12.070;2023-11-21T06:53:35;12.37;;;6.20;;
16965;SDS011;8599;47.852;12.070;2023-11-21T06:56:03;11.17;;;5.70;;
16965;SDS011;8599;47.852;12.070;2023-11-21T06:58:32;14.67;;;5.37;;
16965;SDS011;8599;47.852;12.070;2023-11-21T07:00:59;7.60;;;4.87;;
16965;SDS011;8599;47.852;12.070;2023-11-21T07:03:26;10.33;;;5.00;;
16965;SDS011;8599;47.852;12.070;2023-11-21T07:05:53;10.40;;;5.63;;
16965;SDS011;8599;47.852;12.070;2023-11-21T07:08:20;12.80;;;6.40;;
16965;SDS011;8599;47.852;12.070;2023-11-21T07:10:46;14.53;;;6.87;;
16965;SDS011;8599;47.852;12.070;2023-11-21T07:13:14;19.93;;;8.20;;
16965;SDS011;8599;47.852;12.070;2023-11-21T07:15:42;18.20;;;9.03;;
16965;SDS011;8599;47.852;12.070;2023-11-21T07:18:09;14.17;;;7.73;;
16965;SDS011;8599;47.852;12.070;2023-11-21T07:20:36;12.33;;;7.03;;
16965;SDS011;8599;47.852;12.070;2023-11-21T07:23:03;15.13;;;6.67;;
16965;SDS011;8599;47.852;12.070;2023-11-21T07:25:30;13.47;;;6.83;;
16965;SDS011;8599;47.852;12.070;2023-11-21T07:27:58;10.10;;;5.97;;
16965;SDS011;8599;47.852;12.070;2023-11-21T07:30:25;12.93;;;6.43;;
16965;SDS011;8599;47.852;12.070;2023-11-21T07:32:53;11.10;;;6.63;;
16965;SDS011;8599;47.852;12.070;2023-11-21T07:35:20;11.10;;;6.57;;
16965;SDS011;8599;47.852;12.070;2023-11-21T07:37:47;16.47;;;7.27;;
16965;SDS011;8599;47.852;12.070;2023-11-21T07:40:15;15.27;;;6.07;;
16965;SDS011;8599;47.852;12.070;2023-11-21T07:42:42;12.40;;;6.80;;
16965;SDS011;8599;47.852;12.070;2023-11-21T07:45:09;30.37;;;8.43;;
16965;SDS011;8599;47.852;12.070;2023-11-21T07:47:36;25.70;;;10.13;;
16965;SDS011;8599;47.852;12.070;2023-11-21T07:50:06;21.13;;;7.73;;
16965;SDS011;8599;47.852;12.070;2023-11-21T07:52:34;12.43;;;6.83;;
16965;SDS011;8599;47.852;12.070;2023-11-21T07:55:01;9.07;;;6.13;;
16965;SDS011;8599;47.852;12.070;2023-11-21T07:57:28;13.10;;;5.87;;
16965;SDS011;8599;47.852;12.070;2023-11-21T07:59:55;10.67;;;5.53;;
16965;SDS011;8599;47.852;12.070;2023-11-21T08:02:22;14.03;;;5.13;;
16965;SDS011;8599;47.852;12.070;2023-11-21T08:04:49;17.20;;;5.70;;
16965;SDS011;8599;47.852;12.070;2023-11-21T08:07:18;11.50;;;4.67;;
16965;SDS011;8599;47.852;12.070;2023-11-21T08:09:45;13.17;;;4.60;;
16965;SDS011;8599;47.852;12.070;2023-11-21T08:12:14;8.63;;;4.40;;
16965;SDS011;8599;47.852;12.070;2023-11-21T08:14:41;6.80;;;3.80;;
16965;SDS011;8599;47.852;12.070;2023-11-21T08:17:09;7.13;;;3.90;;
16965;SDS011;8599;47.852;12.070;2023-11-21T08:19:36;14.10;;;6.10;;
16965;SDS011;8599;47.852;12.070;2023-11-21T08:22:03;12.17;;;5.50;;
16965;SDS011;8599;47.852;12.070;2023-11-21T08:24:34;14.70;;;6.73;;
16965;SDS011;8599;47.852;12.070;2023-11-21T08:27:02;9.50;;;5.77;;
16965;SDS011;8599;47.852;12.070;2023-11-21T08:29:29;14.33;;;5.33;;
16965;SDS011;8599;47.852;12.070;2023-11-21T08:31:57;12.93;;;5.53;;
16965;SDS011;8599;47.852;12.070;2023-11-21T08:34:25;12.47;;;4.33;;
16965;SDS011;8599;47.852;12.070;2023-11-21T08:36:52;9.10;;;4.50;;
16965;SDS011;8599;47.852;12.070;2023-11-21T08:39:18;7.73;;;4.07;;
16965;SDS011;8599;47.852;12.070;2023-11-21T08:41:46;8.20;;;3.63;;
16965;SDS011;8599;47.852;12.070;2023-11-21T08:44:13;5.63;;;4.37;;
16965;SDS011;8599;47.852;12.070;2023-11-21T08:46:41;6.97;;;3.57;;
16965;SDS011;8599;47.852;12.070;2023-11-21T08:49:10;8.37;;;3.70;;
16965;SDS011;8599;47.852;12.070;2023-11-21T08:51:37;8.27;;;3.47;;
16965;SDS011;8599;47.852;12.070;2023-11-21T08:54:04;4.83;;;3.23;;
16965;SDS011;8599;47.852;12.070;2023-11-21T08:56:33;11.80;;;4.07;;
16965;SDS011;8599;47.852;12.070;2023-11-21T08:59:01;9.60;;;4.10;;
16965;SDS011;8599;47.852;12.070;2023-11-21T09:01:28;13.57;;;4.40;;
16965;SDS011;8599;47.852;12.070;2023-11-21T09:03:56;7.30;;;4.10;;
16965;SDS011;8599;47.852;12.070;2023-11-21T09:06:23;9.03;;;4.20;;
16965;SDS011;8599;47.852;12.070;2023-11-21T09:08:50;11.80;;;4.33;;
16965;SDS011;8599;47.852;12.070;2023-11-21T09:11:17;11.37;;;5.37;;
16965;SDS011;8599;47.852;12.070;2023-11-21T09:13:44;14.83;;;5.30;;
16965;SDS011;8599;47.852;12.070;2023-11-21T09:16:13;13.97;;;5.10;;
16965;SDS011;8599;47.852;12.070;2023-11-21T09:18:40;8.07;;;4.57;;
16965;SDS011;8599;47.852;12.070;2023-11-21T09:21:07;11.30;;;4.10;;
16965;SDS011;8599;47.852;12.070;2023-11-21T09:23:35;7.77;;;3.57;;
16965;SDS011;8599;47.852;12.070;2023-11-21T09:26:02;8.03;;;3.43;;
16965;SDS011;8599;47.852;12.070;2023-11-21T09:28:30;5.97;;;3.00;;
16965;SDS011;8599;47.852;12.070;2023-11-21T09:30:57;5.07;;;3.30;;
16965;SDS011;8599;47.852;12.070;2023-11-21T09:33:25;4.13;;;3.00;;
16965;SDS011;8599;47.852;12.070;2023-11-21T09:35:52;3.43;;;1.97;;
16965;SDS011;8599;47.852;12.070;2023-11-21T09:38:19;6.83;;;2.00;;
16965;SDS011;8599;47.852;12.070;2023-11-21T09:40:46;2.93;;;1.30;;
16965;SDS011;8599;47.852;12.070;2023-11-21T09:43:15;1.33;;;1.20;;
16965;SDS011;8599;47.852;12.070;2023-11-21T09:45:44;2.00;;;1.20;;
16965;SDS011;8599;47.852;12.070;2023-11-21T09:48:13;1.97;;;1.20;;
16965;SDS011;8599;47.852;12.070;2023-11-21T09:50:43;2.17;;;1.17;;
16965;SDS011;8599;47.852;12.070;2023-11-21T09:53:13;1.37;;;0.93;;
16965;SDS011;8599;47.852;12.070;2023-11-21T09:55:44;1.83;;;1.00;;
16965;SDS011;8599;47.852;12.070;2023-11-21T09:58:13;3.27;;;1.37;;
16965;SDS011;8599;47.852;12.070;2023-11-21T10:00:40;1.07;;;0.70;;
16965;SDS011;8599;47.852;12.070;2023-11-21T10:03:08;1.60;;;0.93;;
16965;SDS011;8599;47.852;12.070;2023-11-21T10:05:35;4.03;;;1.00;;
16965;SDS011;8599;47.852;12.070;2023-11-21T10:08:07;2.80;;;0.90;;
16965;SDS011;8599;47.852;12.070;2023-11-21T10:10:35;2.13;;;0.70;;
16965;SDS011;8599;47.852;12.070;2023-11-21T10:13:03;4.73;;;0.80;;
16965;SDS011;8599;47.852;12.070;2023-11-21T10:15:33;1.53;;;0.70;;
16965;SDS011;8599;47.852;12.070;2023-11-21T10:18:02;1.27;;;0.70;;
16965;SDS011;8599;47.852;12.070;2023-11-21T10:20:31;1.60;;;0.77;;
16965;SDS011;8599;47.852;12.070;2023-11-21T10:22:59;3.20;;;0.97;;
16965;SDS011;8599;47.852;12.070;2023-11-21T10:25:30;1.03;;;0.63;;
16965;SDS011;8599;47.852;12.070;2023-11-21T10:27:58;0.87;;;0.80;;
16965;SDS011;8599;47.852;12.070;2023-11-21T10:30:31;1.53;;;0.93;;
16965;SDS011;8599;47.852;12.070;2023-11-21T10:33:01;0.70;;;0.70;;
16965;SDS011;8599;47.852;12.070;2023-11-21T10:35:38;1.03;;;0.50;;
16965;SDS011;8599;47.852;12.070;2023-11-21T10:38:16;1.90;;;1.30;;
16965;SDS011;8599;47.852;12.070;2023-11-21T10:40:44;6.50;;;1.03;;
16965;SDS011;8599;47.852;12.070;2023-11-21T10:43:11;4.40;;;1.77;;
16965;SDS011;8599;47.852;12.070;2023-11-21T10:45:40;4.37;;;2.80;;
16965;SDS011;8599;47.852;12.070;2023-11-21T10:48:07;1.33;;;1.07;;
16965;SDS011;8599;47.852;12.070;2023-11-21T10:50:35;4.53;;;1.60;;
16965;SDS011;8599;47.852;12.070;2023-11-21T10:53:03;5.50;;;2.77;;
16965;SDS011;8599;47.852;12.070;2023-11-21T10:55:30;12.53;;;5.97;;
16965;SDS011;8599;47.852;12.070;2023-11-21T10:58:00;2.87;;;1.90;;
16965;SDS011;8599;47.852;12.070;2023-11-21T11:00:28;4.40;;;2.13;;
16965;SDS011;8599;47.852;12.070;2023-11-21T11:02:55;5.10;;;2.00;;
16965;SDS011;8599;47.852;12.070;2023-11-21T11:05:24;3.47;;;1.50;;
16965;SDS011;8599;47.852;12.070;2023-11-21T11:07:55;0.87;;;0.80;;
16965;SDS011;8599;47.852;12.070;2023-11-21T11:10:27;10.10;;;6.90;;
16965;SDS011;8599;47.852;12.070;2023-11-21T11:12:54;2.47;;;1.73;;
16965;SDS011;8599;47.852;12.070;2023-11-21T11:15:23;3.50;;;1.00;;
16965;SDS011;8599;47.852;12.070;2023-11-21T11:17:51;2.00;;;0.93;;
16965;SDS011;8599;47.852;12.070;2023-11-21T11:20:22;10.17;;;1.20;;
16965;SDS011;8599;47.852;12.070;2023-11-21T11:22:51;2.47;;;1.27;;
16965;SDS011;8599;47.852;12.070;2023-11-21T11:25:34;1.60;;;0.80;;
16965;SDS011;8599;47.852;12.070;2023-11-21T11:28:10;2.83;;;0.90;;
16965;SDS011;8599;47.852;12.070;2023-11-21T11:30:44;2.57;;;1.00;;
16965;SDS011;8599;47.852;12.070;2023-11-21T11:33:21;1.80;;;1.23;;
16965;SDS011;8599;47.852;12.070;2023-11-21T11:36:00;1.30;;;1.20;;
16965;SDS011;8599;47.852;12.070;2023-11-21T11:38:33;3.97;;;0.97;;
16965;SDS011;8599;47.852;12.070;2023-11-21T11:41:01;1.30;;;0.70;;
16965;SDS011;8599;47.852;12.070;2023-11-21T11:43:29;1.30;;;0.90;;
16965;SDS011;8599;47.852;12.070;2023-11-21T11:45:59;1.50;;;0.97;;
16965;SDS011;8599;47.852;12.070;2023-11-21T11:48:29;1.47;;;0.90;;
16965;SDS011;8599;47.852;12.070;2023-11-21T11:51:03;2.50;;;1.50;;
16965;SDS011;8599;47.852;12.070;2023-11-21T11:53:35;2.10;;;1.43;;
16965;SDS011;8599;47.852;12.070;2023-11-21T11:56:19;5.20;;;1.23;;
16965;SDS011;8599;47.852;12.070;2023-11-21T11:58:51;4.73;;;1.10;;
16965;SDS011;8599;47.852;12.070;2023-11-21T12:01:20;2.03;;;1.13;;
16965;SDS011;8599;47.852;12.070;2023-11-21T12:06:59;2.10;;;1.10;;
16965;SDS011;8599;47.852;12.070;2023-11-21T12:09:28;1.17;;;0.70;;
16965;SDS011;8599;47.852;12.070;2023-11-21T12:11:57;2.13;;;1.30;;
16965;SDS011;8599;47.852;12.070;2023-11-21T12:14:25;4.13;;;1.10;;
16965;SDS011;8599;47.852;12.070;2023-11-21T12:16:54;1.30;;;0.93;;
16965;SDS011;8599;47.852;12.070;2023-11-21T12:19:22;4.43;;;1.23;;
16965;SDS011;8599;47.852;12.070;2023-11-21T12:21:49;2.30;;;1.20;;
16965;SDS011;8599;47.852;12.070;2023-11-21T12:24:17;1.40;;;0.90;;
16965;SDS011;8599;47.852;12.070;2023-11-21T12:26:44;1.00;;;0.83;;
16965;SDS011;8599;47.852;12.070;2023-11-21T12:29:11;1.33;;;0.70;;
16965;SDS011;8599;47.852;12.070;2023-11-21T12:31:38;1.90;;;0.80;;
16965;SDS011;8599;47.852;12.070;2023-11-21T12:34:06;2.07;;;0.80;;
16965;SDS011;8599;47.852;12.070;2023-11-21T12:36:36;2.40;;;0.90;;
16965;SDS011;8599;47.852;12.070;2023-11-21T12:39:03;2.23;;;0.70;;
16965;SDS011;8599;47.852;12.070;2023-11-21T12:41:34;0.90;;;0.77;;
16965;SDS011;8599;47.852;12.070;2023-11-21T12:44:00;3.67;;;0.80;;
16965;SDS011;8599;47.852;12.070;2023-11-21T12:46:28;1.40;;;0.80;;
16965;SDS011;8599;47.852;12.070;2023-11-21T12:48:58;0.60;;;0.60;;
16965;SDS011;8599;47.852;12.070;2023-11-21T12:51:26;3.60;;;0.90;;
16965;SDS011;8599;47.852;12.070;2023-11-21T12:53:54;1.17;;;0.90;;
16965;SDS011;8599;47.852;12.070;2023-11-21T12:56:21;1.00;;;0.87;;
16965;SDS011;8599;47.852;12.070;2023-11-21T12:58:49;1.23;;;0.70;;
16965;SDS011;8599;47.852;12.070;2023-11-21T13:01:19;1.43;;;0.90;;
16965;SDS011;8599;47.852;12.070;2023-11-21T13:03:48;3.50;;;0.97;;
16965;SDS011;8599;47.852;12.070;2023-11-21T13:06:16;0.83;;;0.83;;
16965;SDS011;8599;47.852;12.070;2023-11-21T13:08:45;0.90;;;0.90;;
16965;SDS011;8599;47.852;12.070;2023-11-21T13:11:12;1.47;;;1.17;;
16965;SDS011;8599;47.852;12.070;2023-11-21T13:13:40;1.90;;;1.00;;
16965;SDS011;8599;47.852;12.070;2023-11-21T13:16:08;0.70;;;0.70;;
16965;SDS011;8599;47.852;12.070;2023-11-21T13:18:35;1.00;;;1.00;;
16965;SDS011;8599;47.852;12.070;2023-11-21T13:21:05;3.83;;;1.80;;
16965;SDS011;8599;47.852;12.070;2023-11-21T13:23:36;3.13;;;1.43;;
16965;SDS011;8599;47.852;12.070;2023-11-21T13:26:05;1.40;;;1.30;;
16965;SDS011;8599;47.852;12.070;2023-11-21T13:28:32;2.50;;;1.13;;
16965;SDS011;8599;47.852;12.070;2023-11-21T13:30:59;3.00;;;1.50;;
16965;SDS011;8599;47.852;12.070;2023-11-21T13:33:34;3.73;;;1.13;;
16965;SDS011;8599;47.852;12.070;2023-11-21T13:36:03;1.13;;;0.73;;
16965;SDS011;8599;47.852;12.070;2023-11-21T13:38:32;0.90;;;0.60;;
16965;SDS011;8599;47.852;12.070;2023-11-21T13:41:00;0.90;;;0.80;;
16965;SDS011;8599;47.852;12.070;2023-11-21T13:43:29;4.77;;;0.73;;
16965;SDS011;8599;47.852;12.070;2023-11-21T13:45:56;2.30;;;0.93;;
16965;SDS011;8599;47.852;12.070;2023-11-21T13:48:26;2.43;;;1.00;;
16965;SDS011;8599;47.852;12.070;2023-11-21T13:50:59;3.73;;;1.00;;
16965;SDS011;8599;47.852;12.070;2023-11-21T13:53:35;2.67;;;1.50;;
16965;SDS011;8599;47.852;12.070;2023-11-21T13:56:04;2.67;;;1.20;;
16965;SDS011;8599;47.852;12.070;2023-11-21T13:58:32;1.17;;;1.03;;
16965;SDS011;8599;47.852;12.070;2023-11-21T14:01:09;2.53;;;1.17;;
16965;SDS011;8599;47.852;12.070;2023-11-21T14:03:50;1.50;;;0.87;;
16965;SDS011;8599;47.852;12.070;2023-11-21T14:06:23;1.60;;;0.83;;
16965;SDS011;8599;47.852;12.070;2023-11-21T14:08:57;1.67;;;1.10;;
16965;SDS011;8599;47.852;12.070;2023-11-21T14:11:30;2.00;;;0.93;;
16965;SDS011;8599;47.852;12.070;2023-11-21T14:13:58;2.47;;;1.00;;
16965;SDS011;8599;47.852;12.070;2023-11-21T14:16:25;1.33;;;1.20;;
16965;SDS011;8599;47.852;12.070;2023-11-21T14:18:52;2.17;;;1.10;;
16965;SDS011;8599;47.852;12.070;2023-11-21T14:21:26;1.80;;;1.20;;
16965;SDS011;8599;47.852;12.070;2023-11-21T14:23:53;1.60;;;1.50;;
16965;SDS011;8599;47.852;12.070;2023-11-21T14:26:20;1.97;;;1.23;;
16965;SDS011;8599;47.852;12.070;2023-11-21T14:28:49;1.37;;;1.17;;
16965;SDS011;8599;47.852;12.070;2023-11-21T14:31:19;4.50;;;2.00;;
16965;SDS011;8599;47.852;12.070;2023-11-21T14:33:45;8.80;;;4.90;;
16965;SDS011;8599;47.852;12.070;2023-11-21T14:36:15;8.00;;;3.37;;
16965;SDS011;8599;47.852;12.070;2023-11-21T14:38:42;3.37;;;1.77;;
16965;SDS011;8599;47.852;12.070;2023-11-21T14:41:09;1.60;;;1.20;;
16965;SDS011;8599;47.852;12.070;2023-11-21T14:43:36;1.60;;;1.07;;
16965;SDS011;8599;47.852;12.070;2023-11-21T14:46:04;1.90;;;1.40;;
16965;SDS011;8599;47.852;12.070;2023-11-21T14:48:36;2.07;;;1.60;;
16965;SDS011;8599;47.852;12.070;2023-11-21T14:51:08;10.07;;;2.77;;